createdAt,value
2019-04-30T00:02:29.308Z,100777.19
2019-04-30T00:04:56.971Z,100779.05
2019-04-30T00:07:29.989Z,100772.84
2019-04-30T00:10:01.801Z,100772.84
2019-04-30T00:12:35.917Z,100771.97
2019-04-30T00:15:11.129Z,100772.22
2019-04-30T00:17:40.998Z,100772.47
2019-04-30T00:20:12.868Z,100774.36
2019-04-30T00:22:48.145Z,100776.33
2019-04-30T00:25:19.647Z,100774.23
2019-04-30T00:27:51.973Z,100760.55
2019-04-30T00:30:25.224Z,100766.78
2019-04-30T00:32:57.203Z,100766.94
2019-04-30T00:35:29.087Z,100764.39
2019-04-30T00:38:00.974Z,100763.66
2019-04-30T00:40:32.858Z,100769.64
2019-04-30T00:43:08.869Z,100764.86
2019-04-30T00:45:40.026Z,100767.21
2019-04-30T00:48:19.873Z,100767.34
2019-04-30T00:50:46.549Z,100759.13
2019-04-30T00:53:18.425Z,100765.75
2019-04-30T00:55:50.304Z,100764.67
2019-04-30T00:58:28.960Z,100763.41
2019-04-30T01:01:09.570Z,100770.28
2019-04-30T01:03:49.372Z,100760.59
2019-04-30T01:06:26.756Z,100755.32
2019-04-30T01:08:51.641Z,100763.89
2019-04-30T01:11:25.409Z,100765.98
2019-04-30T01:13:59.059Z,100768.44
2019-04-30T01:16:33.159Z,100766.84
2019-04-30T01:19:05.659Z,100766.12
2019-04-30T01:21:40.194Z,100766.12
2019-04-30T01:24:12.361Z,100767.45
2019-04-30T01:26:44.328Z,100771.75
2019-04-30T01:29:16.131Z,100768.08
2019-04-30T01:31:48.872Z,100768.19
2019-04-30T01:34:20.769Z,100768.80
2019-04-30T01:36:52.569Z,100777.23
2019-04-30T01:39:28.470Z,100778.84
2019-04-30T01:41:58.694Z,100772.83
2019-04-30T01:44:31.625Z,100773.44
2019-04-30T01:47:04.493Z,100775.89
2019-04-30T01:49:42.921Z,100771.21
2019-04-30T01:52:09.874Z,100773.44
2019-04-30T01:54:41.670Z,100769.49
2019-04-30T01:57:35.136Z,100768.05
2019-04-30T02:00:35.030Z,100769.13
2019-04-30T02:03:08.751Z,100770.23
2019-04-30T02:05:40.530Z,100770.70
2019-04-30T02:08:12.403Z,100768.52
2019-04-30T02:10:44.228Z,100765.19
2019-04-30T02:13:16.084Z,100773.64
2019-04-30T02:15:49.370Z,100768.48
2019-04-30T02:18:21.230Z,100768.95
2019-04-30T02:20:53.102Z,100768.48
2019-04-30T02:23:26.064Z,100765.03
2019-04-30T02:25:58.929Z,100766.20
2019-04-30T02:28:30.797Z,100766.95
2019-04-30T02:31:02.806Z,100770.97
2019-04-30T02:33:36.389Z,100764.61
2019-04-30T02:36:36.210Z,100770.31
2019-04-30T02:39:11.049Z,100774.47
2019-04-30T02:41:41.999Z,100773.31
2019-04-30T02:44:14.591Z,100767.08
2019-04-30T02:46:50.331Z,100772.19
2019-04-30T02:49:22.167Z,100775.09
2019-04-30T02:51:54.478Z,100776.34
2019-04-30T02:54:30.690Z,100776.44
2019-04-30T02:57:11.615Z,100778.11
2019-04-30T03:00:01.635Z,100785.58
2019-04-30T03:02:35.239Z,100789.16
2019-04-30T03:05:12.903Z,100783.16
2019-04-30T03:07:41.025Z,100791.60
2019-04-30T03:10:12.959Z,100787.41
2019-04-30T03:12:45.265Z,100785.47
2019-04-30T03:15:19.483Z,100783.63
2019-04-30T03:18:00.756Z,100789.14
2019-04-30T03:21:03.441Z,100786.52
2019-04-30T03:23:35.260Z,100786.08
2019-04-30T03:26:12.560Z,100786.77
2019-04-30T03:28:40.634Z,100787.17
2019-04-30T03:31:12.825Z,100789.20
2019-04-30T03:33:44.676Z,100789.65
2019-04-30T03:36:21.294Z,100793.18
2019-04-30T03:38:50.272Z,100792.93
2019-04-30T03:41:22.065Z,100795.14
2019-04-30T03:43:53.851Z,100792.08
2019-04-30T03:46:25.639Z,100793.55
2019-04-30T03:49:00.105Z,100796.23
2019-04-30T03:51:31.352Z,100797.41
2019-04-30T03:54:03.947Z,100799.47
2019-04-30T03:56:35.797Z,100796.87
2019-04-30T03:59:10.109Z,100798.77
2019-04-30T04:01:53.464Z,100803.02
2019-04-30T04:04:44.240Z,100802.80
2019-04-30T04:07:25.646Z,100799.57
2019-04-30T04:10:10.237Z,100802.59
2019-04-30T04:12:42.093Z,100797.47
2019-04-30T04:15:14.065Z,100809.27
2019-04-30T04:17:45.925Z,100803.98
2019-04-30T04:20:20.055Z,100802.42
2019-04-30T04:22:51.222Z,100805.11
2019-04-30T04:25:23.080Z,100814.19
2019-04-30T04:27:55.058Z,100804.73
2019-04-30T04:30:29.550Z,100807.75
2019-04-30T04:33:00.748Z,100808.30
2019-04-30T04:35:32.762Z,100810.86
2019-04-30T04:38:05.520Z,100807.84
2019-04-30T04:40:39.833Z,100802.09
2019-04-30T04:43:10.936Z,100815.48
2019-04-30T04:45:43.806Z,100811.73
2019-04-30T04:48:15.801Z,100814.09
2019-04-30T04:50:50.225Z,100812.16
2019-04-30T04:53:21.149Z,100815.52
2019-04-30T04:55:52.946Z,100816.19
2019-04-30T04:58:24.859Z,100824.08
2019-04-30T05:00:59.122Z,100820.63
2019-04-30T05:03:35.564Z,100829.02
2019-04-30T05:06:11.341Z,100826.21
2019-04-30T05:08:41.083Z,100824.19
2019-04-30T05:11:13.946Z,100827.50
2019-04-30T05:13:45.746Z,100832.50
2019-04-30T05:16:19.112Z,100834.48
2019-04-30T05:18:51.076Z,100829.98
2019-04-30T05:21:22.861Z,100829.09
2019-04-30T05:23:54.732Z,100827.03
2019-04-30T05:26:28.570Z,100829.39
2019-04-30T05:29:00.169Z,100830.95
2019-04-30T05:31:32.126Z,100831.95
2019-04-30T05:34:06.291Z,100830.13
2019-04-30T05:36:39.173Z,100833.27
2019-04-30T05:39:11.141Z,100831.70
2019-04-30T05:41:43.018Z,100836.12
2019-04-30T05:44:14.875Z,100837.27
2019-04-30T05:46:46.658Z,100834.61
2019-04-30T05:49:18.877Z,100840.86
2019-04-30T05:51:55.469Z,100837.05
2019-04-30T05:54:25.757Z,100842.14
2019-04-30T05:56:59.389Z,100840.50
2019-04-30T05:59:31.248Z,100840.14
2019-04-30T06:02:03.106Z,100836.98
2019-04-30T06:04:34.952Z,100839.70
2019-04-30T06:07:08.587Z,100840.44
2019-04-30T06:09:48.471Z,100840.61
2019-04-30T06:12:42.501Z,100847.65
2019-04-30T06:15:20.921Z,100843.15
2019-04-30T06:18:00.938Z,100850.64
2019-04-30T06:20:28.842Z,100849.21
2019-04-30T06:23:01.059Z,100851.95
2019-04-30T06:25:45.864Z,100848.65
2019-04-30T06:28:09.771Z,100841.78
2019-04-30T06:30:41.889Z,100840.56
2019-04-30T06:33:13.792Z,100837.27
2019-04-30T06:35:45.627Z,100844.52
2019-04-30T06:38:18.509Z,100845.26
2019-04-30T06:40:50.476Z,100842.83
2019-04-30T06:43:23.378Z,100847.97
2019-04-30T06:45:55.343Z,100851.20
2019-04-30T06:48:29.398Z,100844.11
2019-04-30T06:51:01.019Z,100842.50
2019-04-30T06:53:32.872Z,100841.41
2019-04-30T06:56:04.765Z,100840.52
2019-04-30T06:58:36.624Z,100841.01
2019-04-30T07:01:09.501Z,100843.21
2019-04-30T07:03:41.459Z,100846.27
2019-04-30T07:06:13.254Z,100835.31
2019-04-30T07:09:04.033Z,100848.05
2019-04-30T07:11:41.349Z,100844.52
2019-04-30T07:14:13.272Z,100843.36
2019-04-30T07:16:45.123Z,100842.12
2019-04-30T07:19:29.991Z,100847.23
2019-04-30T07:21:50.526Z,100848.27
2019-04-30T07:24:22.462Z,100854.00
2019-04-30T07:26:54.730Z,100853.27
2019-04-30T07:29:29.549Z,100851.00
2019-04-30T07:32:01.546Z,100848.03
2019-04-30T07:34:37.049Z,100850.61
2019-04-30T07:37:16.327Z,100852.85
2019-04-30T07:39:41.060Z,100850.31
2019-04-30T07:42:12.880Z,100846.00
2019-04-30T07:44:44.672Z,100854.57
2019-04-30T07:47:18.916Z,100849.41
2019-04-30T07:49:55.094Z,100844.94
2019-04-30T07:52:24.122Z,100849.45
2019-04-30T07:54:56.893Z,100843.45
2019-04-30T07:57:29.236Z,100845.11
2019-04-30T08:00:02.314Z,100839.73
2019-04-30T08:02:43.458Z,100841.28
2019-04-30T08:05:19.858Z,100841.28
2019-04-30T08:07:51.928Z,100838.03
2019-04-30T08:10:23.818Z,100840.41
2019-04-30T08:12:55.904Z,100837.70
2019-04-30T08:15:29.582Z,100837.70
2019-04-30T08:18:05.538Z,100842.12
2019-04-30T08:20:35.107Z,100841.86
2019-04-30T08:23:16.961Z,100851.48
2019-04-30T08:25:40.908Z,100851.11
2019-04-30T08:28:13.174Z,100847.20
2019-04-30T08:30:45.042Z,100853.30
2019-04-30T08:33:16.898Z,100848.17
2019-04-30T08:35:49.869Z,100854.06
2019-04-30T08:38:22.988Z,100851.61
2019-04-30T08:40:58.049Z,100845.95
2019-04-30T08:43:29.207Z,100852.17
2019-04-30T08:46:01.137Z,100844.30
2019-04-30T08:48:44.240Z,100844.44
2019-04-30T08:51:06.832Z,100841.59
2019-04-30T08:53:40.942Z,100837.77
2019-04-30T08:56:12.749Z,100840.97
2019-04-30T08:58:44.552Z,100841.36
2019-04-30T09:01:17.283Z,100837.66
2019-04-30T09:03:51.383Z,100837.76
2019-04-30T09:06:29.091Z,100836.17
2019-04-30T09:09:14.168Z,100841.20
2019-04-30T09:11:54.686Z,100836.00
2019-04-30T09:14:19.634Z,100837.75
2019-04-30T09:16:52.530Z,100839.03
2019-04-30T09:19:24.436Z,100837.09
2019-04-30T09:21:58.886Z,100833.83
2019-04-30T09:24:31.049Z,100826.68
2019-04-30T09:27:05.881Z,100835.02
2019-04-30T09:29:39.149Z,100832.56
2019-04-30T09:32:11.098Z,100822.16
2019-04-30T09:34:43.858Z,100827.23
2019-04-30T09:37:15.711Z,100822.18
2019-04-30T09:39:49.419Z,100829.60
2019-04-30T09:42:21.102Z,100829.44
2019-04-30T09:44:54.928Z,100834.75
2019-04-30T09:47:26.842Z,100826.73
2019-04-30T09:49:59.616Z,100826.11
2019-04-30T09:52:33.888Z,100819.30
2019-04-30T09:55:05.650Z,100820.32
2019-04-30T09:57:38.997Z,100819.98
2019-04-30T10:00:11.269Z,100826.95
2019-04-30T10:02:43.317Z,100821.84
2019-04-30T10:05:16.613Z,100817.17
2019-04-30T10:07:49.402Z,100818.16
2019-04-30T10:10:28.876Z,100813.64
2019-04-30T10:13:00.983Z,100822.23
2019-04-30T10:15:43.211Z,100814.65
2019-04-30T10:18:15.080Z,100808.62
2019-04-30T10:20:47.433Z,100808.57
2019-04-30T10:23:19.433Z,100805.41
2019-04-30T10:25:51.365Z,100805.03
2019-04-30T10:28:23.235Z,100800.55
2019-04-30T10:30:55.065Z,100803.07
2019-04-30T10:33:28.666Z,100794.34
2019-04-30T10:36:00.560Z,100798.17
2019-04-30T10:38:32.411Z,100796.77
2019-04-30T10:41:04.216Z,100793.33
2019-04-30T10:43:36.277Z,100787.70
2019-04-30T10:46:09.683Z,100787.88
2019-04-30T10:48:43.446Z,100786.83
2019-04-30T10:51:15.343Z,100782.43
2019-04-30T10:53:48.619Z,100781.09
2019-04-30T10:56:20.836Z,100786.37
2019-04-30T10:58:52.708Z,100780.68
2019-04-30T11:01:24.558Z,100781.05
2019-04-30T11:03:56.356Z,100783.64
2019-04-30T11:06:28.215Z,100778.88
2019-04-30T11:09:00.375Z,100775.73
2019-04-30T11:11:33.536Z,100773.80
2019-04-30T11:14:05.387Z,100773.98
2019-04-30T11:16:37.218Z,100773.78
2019-04-30T11:19:09.510Z,100773.23
2019-04-30T11:21:41.708Z,100772.86
2019-04-30T11:24:14.724Z,100767.59
2019-04-30T11:26:49.479Z,100773.31
2019-04-30T11:29:22.899Z,100771.14
2019-04-30T11:32:11.010Z,100759.46
2019-04-30T11:34:42.848Z,100756.39
2019-04-30T11:37:14.713Z,100765.02
2019-04-30T11:39:46.597Z,100764.72
2019-04-30T11:42:18.456Z,100762.04
2019-04-30T11:44:50.340Z,100758.41
2019-04-30T11:47:27.555Z,100755.17
2019-04-30T11:49:59.746Z,100756.14
2019-04-30T11:52:31.714Z,100753.22
2019-04-30T11:55:03.574Z,100743.72
2019-04-30T11:57:35.416Z,100754.98
2019-04-30T12:00:10.730Z,100754.70
2019-04-30T12:02:43.025Z,100747.39
2019-04-30T12:05:20.841Z,100745.53
2019-04-30T12:08:05.130Z,100756.16
2019-04-30T12:10:41.298Z,100742.72
2019-04-30T12:13:26.772Z,100742.73
2019-04-30T12:15:59.114Z,100741.58
2019-04-30T12:18:31.897Z,100741.86
2019-04-30T12:21:03.776Z,100742.20
2019-04-30T12:23:35.638Z,100737.64
2019-04-30T12:26:09.186Z,100743.03
2019-04-30T12:28:42.158Z,100727.61
2019-04-30T12:31:13.965Z,100737.01
2019-04-30T12:33:45.753Z,100728.58
2019-04-30T12:36:18.892Z,100725.52
2019-04-30T12:38:50.788Z,100732.50
2019-04-30T12:41:22.647Z,100729.25
2019-04-30T12:43:54.516Z,100725.73
2019-04-30T12:46:26.304Z,100726.84
2019-04-30T12:49:10.057Z,100729.03
2019-04-30T12:52:08.634Z,100732.64
2019-04-30T12:54:48.233Z,100727.59
2019-04-30T12:57:39.389Z,100720.47
2019-04-30T13:00:13.575Z,100711.52
2019-04-30T13:02:45.543Z,100716.35
2019-04-30T13:05:18.822Z,100715.48
2019-04-30T13:07:51.360Z,100713.34
2019-04-30T13:10:25.069Z,100718.10
2019-04-30T13:12:57.695Z,100719.00
2019-04-30T13:15:30.069Z,100712.80
2019-04-30T13:18:01.858Z,100706.42
2019-04-30T13:20:33.916Z,100704.61
2019-04-30T13:23:06.310Z,100710.33
2019-04-30T13:25:49.014Z,100699.42
2019-04-30T13:28:16.438Z,100698.65
2019-04-30T13:30:49.418Z,100696.17
2019-04-30T13:33:33.383Z,100690.25
2019-04-30T13:36:05.226Z,100689.70
2019-04-30T13:39:01.875Z,100683.98
2019-04-30T13:41:59.957Z,100689.66
2019-04-30T13:44:36.328Z,100698.20
2019-04-30T13:47:10.648Z,100694.43
2019-04-30T13:49:41.828Z,100685.38
2019-04-30T13:52:13.696Z,100678.36
2019-04-30T13:54:45.563Z,100673.81
2019-04-30T13:57:17.424Z,100688.03
2019-04-30T13:59:51.025Z,100683.34
2019-04-30T14:02:23.020Z,100674.41
2019-04-30T14:05:13.879Z,100678.47
2019-04-30T14:08:03.101Z,100677.22
2019-04-30T14:10:39.266Z,100666.23
2019-04-30T14:13:12.516Z,100665.66
2019-04-30T14:15:46.329Z,100675.52
2019-04-30T14:18:28.583Z,100675.25
2019-04-30T14:20:51.741Z,100671.39
2019-04-30T14:23:23.606Z,100685.47
2019-04-30T14:25:56.872Z,100673.50
2019-04-30T14:28:29.234Z,100667.37
2019-04-30T14:31:01.202Z,100655.33
2019-04-30T14:33:33.057Z,100665.62
2019-04-30T14:36:04.917Z,100666.36
2019-04-30T14:38:40.474Z,100671.64
2019-04-30T14:41:12.117Z,100668.95
2019-04-30T14:43:50.898Z,100666.59
2019-04-30T14:46:41.837Z,100661.55
2019-04-30T14:49:29.291Z,100667.39
2019-04-30T14:52:01.524Z,100662.62
2019-04-30T14:54:41.427Z,100654.22
2019-04-30T14:57:34.778Z,100659.88
2019-04-30T15:00:35.404Z,100660.87
2019-04-30T15:03:10.541Z,100655.98
2019-04-30T15:05:48.843Z,100655.11
2019-04-30T15:08:15.999Z,100656.31
2019-04-30T15:10:47.856Z,100657.48
2019-04-30T15:13:19.711Z,100657.60
2019-04-30T15:15:51.570Z,100655.11
2019-04-30T15:18:23.429Z,100655.17
2019-04-30T15:20:55.291Z,100654.19
2019-04-30T15:23:58.665Z,100648.76
2019-04-30T15:26:28.754Z,100657.77
2019-04-30T15:29:01.153Z,100657.15
2019-04-30T15:31:33.088Z,100657.41
2019-04-30T15:34:11.110Z,100640.48
2019-04-30T15:36:45.439Z,100640.22
2019-04-30T15:39:39.332Z,100636.53
2019-04-30T15:42:12.546Z,100647.00
2019-04-30T15:44:45.897Z,100640.78
2019-04-30T15:47:18.937Z,100641.40
2019-04-30T15:49:50.985Z,100637.95
2019-04-30T15:52:22.810Z,100648.72
2019-04-30T15:54:54.685Z,100642.41
2019-04-30T15:57:26.547Z,100636.48
2019-04-30T15:59:58.391Z,100632.80
2019-04-30T16:02:57.495Z,100631.76
2019-04-30T16:05:36.841Z,100629.55
2019-04-30T16:08:18.989Z,100631.84
2019-04-30T16:11:10.618Z,100632.77
2019-04-30T16:14:19.604Z,100632.39
2019-04-30T16:17:08.137Z,100635.94
2019-04-30T16:19:39.997Z,100632.70
2019-04-30T16:22:12.167Z,100632.30
2019-04-30T16:24:44.030Z,100624.22
2019-04-30T16:27:15.858Z,100625.13
2019-04-30T16:29:49.606Z,100624.34
2019-04-30T16:32:22.166Z,100626.02
2019-04-30T16:34:54.120Z,100627.66
2019-04-30T16:37:25.973Z,100624.22
2019-04-30T16:39:58.085Z,100618.29
2019-04-30T16:42:30.096Z,100621.27
2019-04-30T16:45:01.981Z,100621.70
2019-04-30T16:47:35.722Z,100621.33
2019-04-30T16:50:09.048Z,100624.85
2019-04-30T16:52:41.066Z,100625.86
2019-04-30T16:55:13.030Z,100620.97
2019-04-30T16:57:45.066Z,100620.52
2019-04-30T17:00:20.162Z,100622.00
2019-04-30T17:02:56.885Z,100621.61
2019-04-30T17:05:40.622Z,100621.40
2019-04-30T17:08:21.560Z,100621.12
2019-04-30T17:11:03.466Z,100620.05
2019-04-30T17:16:33.526Z,100613.22
2019-04-30T17:19:05.535Z,100611.32
2019-04-30T17:21:37.315Z,100610.56
2019-04-30T17:24:09.102Z,100620.16
2019-04-30T17:26:40.979Z,100615.61
2019-04-30T17:29:12.832Z,100615.47
2019-04-30T17:31:44.695Z,100612.16
2019-04-30T17:34:16.644Z,100616.47
2019-04-30T17:36:51.190Z,100616.77
2019-04-30T17:39:22.532Z,100619.47
2019-04-30T17:41:54.417Z,100624.63
2019-04-30T17:44:28.802Z,100622.59
2019-04-30T17:47:00.199Z,100622.42
2019-04-30T17:49:32.064Z,100626.77
2019-04-30T17:52:04.102Z,100622.02
2019-04-30T17:54:36.000Z,100628.08
2019-04-30T17:57:10.398Z,100631.52
2019-04-30T17:59:41.429Z,100630.92
2019-04-30T18:02:14.936Z,100630.41
2019-04-30T18:04:46.856Z,100630.08
2019-04-30T18:07:19.775Z,100632.16
2019-04-30T18:09:54.277Z,100629.42
2019-04-30T18:12:25.420Z,100634.89
2019-04-30T18:14:57.430Z,100637.27
2019-04-30T18:17:29.505Z,100639.63
2019-04-30T18:20:17.006Z,100641.86
2019-04-30T18:23:11.482Z,100640.30
2019-04-30T18:25:49.985Z,100640.45
2019-04-30T18:28:21.851Z,100638.70
2019-04-30T18:30:54.779Z,100636.82
2019-04-30T18:33:26.905Z,100648.38
2019-04-30T18:35:59.714Z,100648.71
2019-04-30T18:38:31.642Z,100652.25
2019-04-30T18:41:03.602Z,100657.49
2019-04-30T18:43:37.897Z,100652.20
2019-04-30T18:46:10.774Z,100658.16
2019-04-30T18:48:42.790Z,100659.53
2019-04-30T18:51:30.305Z,100656.12
2019-04-30T18:53:50.384Z,100660.80
2019-04-30T18:56:22.403Z,100664.91
2019-04-30T18:58:54.371Z,100663.56
2019-04-30T19:01:26.920Z,100666.73
2019-04-30T19:04:01.203Z,100676.34
2019-04-30T19:06:32.355Z,100679.02
2019-04-30T19:09:29.809Z,100680.72
2019-04-30T19:12:39.053Z,100686.67
2019-04-30T19:15:48.534Z,100682.77
2019-04-30T19:18:19.444Z,100688.47
2019-04-30T19:20:53.649Z,100687.44
2019-04-30T19:23:25.525Z,100686.28
2019-04-30T19:25:59.555Z,100692.67
2019-04-30T19:28:31.226Z,100692.81
2019-04-30T19:31:03.166Z,100701.95
2019-04-30T19:33:36.074Z,100699.59
2019-04-30T19:36:13.082Z,100688.98
2019-04-30T19:38:45.586Z,100699.16
2019-04-30T19:41:18.927Z,100697.89
2019-04-30T19:43:51.056Z,100696.66
2019-04-30T19:46:23.019Z,100696.83
2019-04-30T19:48:54.877Z,100697.83
2019-04-30T19:51:26.775Z,100700.08
2019-04-30T19:53:59.833Z,100700.56
2019-04-30T19:56:32.916Z,100699.67
2019-04-30T19:59:05.770Z,100699.38
2019-04-30T20:01:39.100Z,100694.73
2019-04-30T20:04:11.082Z,100694.50
2019-04-30T20:06:42.939Z,100698.30
2019-04-30T20:09:14.811Z,100693.24
2019-04-30T20:11:49.155Z,100697.31
2019-04-30T20:14:20.474Z,100698.77
2019-04-30T20:16:53.245Z,100691.28
2019-04-30T20:19:25.159Z,100692.47
2019-04-30T20:21:59.273Z,100686.58
2019-04-30T20:24:30.737Z,100696.23
2019-04-30T20:27:06.932Z,100698.03
2019-04-30T20:29:36.125Z,100700.69
2019-04-30T20:32:08.650Z,100711.20
2019-04-30T20:34:40.675Z,100711.20
2019-04-30T20:37:12.476Z,100699.28
2019-04-30T20:39:55.463Z,100701.51
2019-04-30T20:42:27.672Z,100702.95
2019-04-30T20:44:59.480Z,100695.61
2019-04-30T20:47:31.349Z,100698.95
2019-04-30T20:50:03.208Z,100698.95
2019-04-30T20:52:35.068Z,100697.97
2019-04-30T20:55:07.567Z,100697.97
2019-04-30T20:57:40.473Z,100713.91
2019-04-30T21:00:12.356Z,100707.59
2019-04-30T21:02:44.211Z,100706.09
2019-04-30T21:05:16.111Z,100707.86
2019-04-30T21:07:48.039Z,100703.23
2019-04-30T21:10:20.033Z,100709.78
2019-04-30T21:12:51.967Z,100709.94
2019-04-30T21:15:23.844Z,100710.41
2019-04-30T21:17:55.730Z,100713.98
2019-04-30T21:20:28.860Z,100713.00
2019-04-30T21:23:01.118Z,100713.98
2019-04-30T21:25:32.985Z,100714.40
2019-04-30T21:28:04.951Z,100716.41
2019-04-30T21:30:37.080Z,100713.09
2019-04-30T21:33:15.125Z,100710.55
2019-04-30T21:36:08.353Z,100711.79
2019-04-30T21:38:40.119Z,100713.55
2019-04-30T21:41:11.983Z,100715.33
2019-04-30T21:43:43.816Z,100708.36
2019-04-30T21:46:15.685Z,100718.44
2019-04-30T21:48:48.826Z,100715.11
2019-04-30T21:51:21.671Z,100714.48
2019-04-30T21:53:53.470Z,100718.11
2019-04-30T21:56:25.262Z,100707.42
2019-04-30T21:58:57.137Z,100711.54
2019-04-30T22:01:29.693Z,100710.30
2019-04-30T22:04:01.762Z,100706.47
2019-04-30T22:06:33.783Z,100711.91
2019-04-30T22:09:07.297Z,100711.91
2019-04-30T22:11:40.702Z,100715.95
2019-04-30T22:14:12.597Z,100716.94
2019-04-30T22:16:44.462Z,100714.63
2019-04-30T22:19:17.334Z,100714.63
2019-04-30T22:21:49.658Z,100703.42
2019-04-30T22:24:21.493Z,100703.42
2019-04-30T22:26:53.354Z,100712.47
2019-04-30T22:29:37.051Z,100710.14
2019-04-30T22:31:59.379Z,100716.38
2019-04-30T22:34:31.769Z,100711.48
2019-04-30T22:37:03.826Z,100716.41
2019-04-30T22:40:03.560Z,100712.86
2019-04-30T22:42:36.884Z,100710.07
2019-04-30T22:45:30.118Z,100713.75
2019-04-30T22:48:02.002Z,100709.10
2019-04-30T22:50:34.000Z,100706.89
2019-04-30T22:53:05.880Z,100705.81
2019-04-30T22:55:37.760Z,100704.83
2019-04-30T22:58:09.641Z,100696.84
2019-04-30T23:00:44.155Z,100702.13
2019-04-30T23:03:20.687Z,100697.71
2019-04-30T23:05:52.508Z,100686.45
2019-04-30T23:08:24.373Z,100695.62
2019-04-30T23:10:56.259Z,100682.98
2019-04-30T23:13:28.138Z,100682.39
2019-04-30T23:16:00.172Z,100685.19
2019-04-30T23:18:32.351Z,100683.86
2019-04-30T23:21:04.314Z,100676.38
2019-04-30T23:23:36.198Z,100675.74
2019-04-30T23:26:09.055Z,100666.31
2019-04-30T23:28:40.940Z,100665.11
2019-04-30T23:31:12.820Z,100667.05
2019-04-30T23:33:44.689Z,100663.02
2019-04-30T23:36:16.613Z,100660.55
2019-04-30T23:38:48.490Z,100659.96
2019-04-30T23:41:20.378Z,100655.91
2019-04-30T23:43:54.962Z,100652.11
2019-04-30T23:46:25.782Z,100645.23
2019-04-30T23:48:57.677Z,100640.47
2019-04-30T23:51:29.542Z,100642.27
2019-04-30T23:54:01.422Z,100644.23
2019-04-30T23:56:33.300Z,100645.23
2019-04-30T23:59:05.184Z,100642.57
